Time;durP1;ratioP1;P1;durP2;ratioP2;P2;SDS_P1;SDS_P2;PMS_P1;PMS_P2;Temp;Humidity;BMP_temperature;BMP_pressure;BME280_temperature;BME280_humidity;BME280_pressure;Samples;Min_cycle;Max_cycle;Signal;HPM_P1;HPM_P2
2022/08/05 00:01:33;;;;;;;10.63;9.57;;;21.90;99.90;;;;;;6312596;28;20269;-67
2022/08/05 00:04:52;;;;;;;11.70;10.23;;;21.90;99.90;;;;;;6313601;28;20302;-68
2022/08/05 00:08:01;;;;;;;11.50;9.60;;;21.90;99.90;;;;;;6313635;28;20275;-68
2022/08/05 00:11:10;;;;;;;10.80;9.70;;;22.00;99.90;;;;;;6314350;28;20259;-68
2022/08/05 00:14:32;;;;;;;11.18;10.07;;;21.90;99.90;;;;;;6313509;28;20586;-69
2022/08/05 00:17:37;;;;;;;15.77;11.40;;;21.80;99.90;;;;;;6314068;28;20275;-68
2022/08/05 00:20:45;;;;;;;11.57;10.43;;;21.70;99.90;;;;;;6313794;28;20602;-69
2022/08/05 00:23:53;;;;;;;11.57;10.35;;;21.70;99.90;;;;;;6313279;28;20562;-68
2022/08/05 00:27:15;;;;;;;13.75;10.95;;;21.70;99.90;;;;;;6313572;28;20270;-68
2022/08/05 00:30:21;;;;;;;10.95;9.88;;;21.70;99.90;;;;;;6313307;28;20315;-68
2022/08/05 00:33:36;;;;;;;11.02;10.00;;;21.70;99.90;;;;;;6313482;28;20294;-68
2022/08/05 00:37:01;;;;;;;12.32;10.85;;;21.60;99.90;;;;;;6313266;28;20450;-68
2022/08/05 00:40:18;;;;;;;12.63;10.40;;;21.50;99.90;;;;;;6313182;28;20322;-68
2022/08/05 00:43:33;;;;;;;14.60;10.63;;;21.50;99.90;;;;;;6312433;28;20485;-68
2022/08/05 00:46:54;;;;;;;11.88;10.50;;;21.60;99.90;;;;;;6313250;28;20266;-68
2022/08/05 00:50:09;;;;;;;12.45;10.75;;;21.50;99.90;;;;;;6312794;28;20294;-68
2022/08/05 00:53:16;;;;;;;11.80;10.80;;;21.50;99.90;;;;;;6312913;28;20270;-68
2022/08/05 00:56:43;;;;;;;11.20;10.20;;;21.50;99.90;;;;;;6312718;28;20546;-68
2022/08/05 00:59:56;;;;;;;11.20;10.15;;;21.40;99.90;;;;;;6312135;28;20581;-68
2022/08/05 01:03:01;;;;;;;13.18;10.93;;;21.50;99.90;;;;;;6312494;28;20270;-68
2022/08/05 01:06:12;;;;;;;13.70;10.45;;;21.30;99.90;;;;;;6312971;28;20294;-68
2022/08/05 01:09:19;;;;;;;11.40;10.40;;;21.40;99.90;;;;;;6311853;28;20293;-68
2022/08/05 01:12:26;;;;;;;15.38;10.88;;;21.50;99.90;;;;;;6312725;28;20629;-68
2022/08/05 01:15:39;;;;;;;11.50;10.32;;;21.40;99.90;;;;;;6311995;28;20298;-68
2022/08/05 01:18:54;;;;;;;10.80;9.88;;;21.50;99.90;;;;;;6311839;28;20481;-68
2022/08/05 01:22:18;;;;;;;12.52;10.90;;;21.50;99.90;;;;;;6312559;28;20271;-68
2022/08/05 01:26:10;;;;;;;11.55;10.35;;;21.50;99.90;;;;;;6311595;28;20305;-68
2022/08/05 01:29:22;;;;;;;15.48;10.82;;;21.50;99.90;;;;;;6311692;28;20567;-68
2022/08/05 01:32:33;;;;;;;12.25;11.25;;;21.40;99.90;;;;;;6311789;28;20287;-68
2022/08/05 01:35:43;;;;;;;11.07;9.95;;;21.50;99.90;;;;;;6311731;28;20298;-67
2022/08/05 01:38:57;;;;;;;11.63;10.50;;;21.50;99.90;;;;;;6311402;28;20469;-68
2022/08/05 01:42:06;;;;;;;12.25;10.93;;;21.50;99.90;;;;;;6311757;28;20507;-68
2022/08/05 01:45:15;;;;;;;11.23;10.20;;;21.50;99.90;;;;;;6309711;28;20318;-68
2022/08/05 01:48:21;;;;;;;11.63;10.57;;;21.50;99.90;;;;;;6311037;28;20295;-68
2022/08/05 01:51:27;;;;;;;12.55;10.77;;;21.40;99.90;;;;;;6311772;28;20270;-69
2022/08/05 01:54:39;;;;;;;12.32;10.43;;;21.40;99.90;;;;;;6311095;28;20302;-68
2022/08/05 01:57:53;;;;;;;18.05;10.70;;;21.40;99.90;;;;;;6311306;28;20550;-69
2022/08/05 02:01:20;;;;;;;11.68;10.57;;;21.30;99.90;;;;;;6310748;28;20278;-68
2022/08/05 02:04:35;;;;;;;12.63;11.10;;;21.40;99.90;;;;;;6310663;28;20298;-68
2022/08/05 02:07:41;;;;;;;12.45;11.18;;;21.40;99.90;;;;;;6310996;28;20541;-68
2022/08/05 02:11:07;;;;;;;11.45;10.45;;;21.30;99.90;;;;;;6310642;28;20275;-68
2022/08/05 02:14:21;;;;;;;12.15;11.05;;;21.20;99.90;;;;;;6310937;28;20294;-68
2022/08/05 02:17:32;;;;;;;14.95;12.00;;;21.30;99.90;;;;;;6311502;28;20267;-68
2022/08/05 02:21:01;;;;;;;17.77;11.32;;;21.30;99.90;;;;;;6311064;28;20294;-68
2022/08/05 02:24:11;;;;;;;17.90;12.15;;;21.30;99.90;;;;;;6310413;28;20299;-68
2022/08/05 02:27:22;;;;;;;15.13;11.55;;;21.30;99.90;;;;;;6311319;28;20274;-68
2022/08/05 02:30:53;;;;;;;12.57;11.35;;;21.30;99.90;;;;;;6310497;28;20294;-68
2022/08/05 02:34:07;;;;;;;13.40;11.60;;;21.30;99.90;;;;;;6310461;28;20294;-68
2022/08/05 02:37:14;;;;;;;12.20;11.10;;;21.40;99.90;;;;;;6310960;28;20442;-69
2022/08/05 02:40:22;;;;;;;14.50;10.65;;;21.40;99.90;;;;;;6310392;28;20294;-68
2022/08/05 02:43:30;;;;;;;14.43;11.55;;;21.40;99.90;;;;;;6310505;28;20294;-68
2022/08/05 02:46:39;;;;;;;13.13;10.90;;;21.50;99.90;;;;;;6310951;28;20287;-68
2022/08/05 02:50:08;;;;;;;12.70;10.63;;;21.40;99.90;;;;;;6310295;28;20298;-68
2022/08/05 02:53:17;;;;;;;13.63;10.77;;;21.50;99.90;;;;;;6309862;28;20270;-68
2022/08/05 02:56:26;;;;;;;14.40;10.65;;;21.40;99.90;;;;;;6311132;28;20270;-68
2022/08/05 02:59:31;;;;;;;14.57;11.00;;;21.40;99.90;;;;;;6310509;28;20294;-67
2022/08/05 03:02:55;;;;;;;11.15;10.18;;;21.40;99.90;;;;;;6306562;28;20271;-68
2022/08/05 03:06:03;;;;;;;12.90;10.30;;;21.50;99.90;;;;;;6309996;28;20298;-68
2022/08/05 03:09:28;;;;;;;11.75;10.75;;;21.40;99.90;;;;;;6284993;28;20299;-68
2022/08/05 03:12:42;;;;;;;17.30;10.88;;;21.40;99.90;;;;;;6302407;28;20546;-69
2022/08/05 03:15:48;;;;;;;12.52;10.65;;;21.50;99.90;;;;;;6309392;28;20278;-69
2022/08/05 03:18:55;;;;;;;17.27;10.80;;;21.40;99.90;;;;;;6309936;28;20299;-68
2022/08/05 03:22:02;;;;;;;12.80;10.95;;;21.40;99.90;;;;;;6310432;28;20262;-68
2022/08/05 03:25:22;;;;;;;10.75;9.90;;;21.50;99.90;;;;;;6309843;28;20300;-67
2022/08/05 03:28:48;;;;;;;12.32;10.48;;;21.40;99.90;;;;;;6309871;28;20327;-67
2022/08/05 03:31:56;;;;;;;16.67;10.63;;;21.50;99.90;;;;;;6310448;28;20286;-67
2022/08/05 03:35:06;;;;;;;13.00;10.20;;;21.50;99.90;;;;;;6311839;28;20294;-67
2022/08/05 03:38:14;;;;;;;11.57;10.00;;;21.50;99.90;;;;;;6314606;28;20298;-67
2022/08/05 03:41:23;;;;;;;11.65;10.50;;;21.30;99.90;;;;;;6313644;28;20271;-67
2022/08/05 03:44:29;;;;;;;11.23;10.13;;;21.30;99.90;;;;;;6314090;28;20298;-67
2022/08/05 03:47:37;;;;;;;14.63;11.38;;;21.40;99.90;;;;;;6314521;28;20294;-68
2022/08/05 03:50:58;;;;;;;13.45;10.68;;;21.40;99.90;;;;;;6313649;28;20275;-68
2022/08/05 03:54:32;;;;;;;12.05;11.05;;;21.40;99.90;;;;;;6314180;28;20298;-68
2022/08/05 03:57:57;;;;;;;11.68;10.68;;;21.30;99.90;;;;;;6313819;28;20613;-68
2022/08/05 04:01:06;;;;;;;14.25;10.60;;;21.30;99.90;;;;;;6314136;28;20270;-67
2022/08/05 04:04:11;;;;;;;11.77;10.60;;;21.30;99.90;;;;;;6313651;28;20491;-68
2022/08/05 04:07:21;;;;;;;14.25;11.10;;;21.30;99.90;;;;;;6314258;28;20586;-68
2022/08/05 04:10:31;;;;;;;16.20;12.00;;;21.30;99.90;;;;;;6313910;28;20483;-68
2022/08/05 04:13:42;;;;;;;14.38;11.35;;;21.30;99.90;;;;;;6313682;28;20593;-68
2022/08/05 04:16:55;;;;;;;14.05;11.57;;;21.20;99.90;;;;;;6313508;28;20468;-68
2022/08/05 04:20:00;;;;;;;16.67;11.25;;;21.30;99.90;;;;;;6313548;28;20580;-67
2022/08/05 04:23:07;;;;;;;13.23;11.85;;;21.20;99.90;;;;;;6313472;28;20553;-68
2022/08/05 04:26:21;;;;;;;13.32;11.88;;;21.20;99.90;;;;;;6313925;28;20290;-68
2022/08/05 04:29:26;;;;;;;13.50;12.07;;;21.20;99.90;;;;;;6312997;28;20294;-68
2022/08/05 04:32:33;;;;;;;18.65;12.98;;;21.10;99.90;;;;;;6329321;28;20270;-68
2022/08/05 04:35:40;;;;;;;15.70;12.77;;;21.20;99.90;;;;;;6313046;28;20298;-67
2022/08/05 04:39:06;;;;;;;14.27;12.93;;;21.00;99.90;;;;;;6313037;28;20295;-67
2022/08/05 04:42:13;;;;;;;15.63;13.27;;;20.90;99.90;;;;;;6313336;28;20270;-67
2022/08/05 04:45:19;;;;;;;15.07;12.75;;;20.90;99.90;;;;;;6312061;28;20294;-68
2022/08/05 04:48:44;;;;;;;16.65;13.50;;;21.00;99.90;;;;;;6312470;28;20295;-68
2022/08/05 04:51:49;;;;;;;16.67;14.23;;;20.90;99.90;;;;;;6313251;28;20302;-68
2022/08/05 04:55:05;;;;;;;19.38;14.43;;;20.90;99.90;;;;;;6312452;28;20319;-68
2022/08/05 04:58:20;;;;;;;16.33;14.38;;;21.00;99.90;;;;;;6312348;28;20302;-69
2022/08/05 05:01:26;;;;;;;21.10;13.68;;;20.90;99.90;;;;;;6312851;28;20266;-68
2022/08/05 05:04:51;;;;;;;15.27;13.43;;;20.90;99.90;;;;;;6312381;28;20295;-68
2022/08/05 05:08:00;;;;;;;14.98;13.10;;;21.00;99.90;;;;;;6312284;28;20294;-68
2022/08/05 05:11:06;;;;;;;15.70;13.52;;;21.10;99.90;;;;;;6312670;28;20271;-68
2022/08/05 05:14:13;;;;;;;15.73;13.38;;;21.10;99.90;;;;;;6312134;28;20582;-68
2022/08/05 05:17:20;;;;;;;17.38;13.43;;;21.10;99.90;;;;;;6312068;28;20274;-68
2022/08/05 05:20:29;;;;;;;17.52;13.75;;;21.10;99.90;;;;;;6311687;28;20294;-68
2022/08/05 05:23:34;;;;;;;15.32;13.48;;;21.30;99.90;;;;;;6311894;28;20318;-67
2022/08/05 05:26:59;;;;;;;15.57;14.07;;;21.30;99.90;;;;;;6311913;28;20321;-68
2022/08/05 05:30:08;;;;;;;19.83;15.05;;;21.30;99.90;;;;;;6310520;28;20302;-68
2022/08/05 05:33:32;;;;;;;18.23;15.45;;;21.30;99.90;;;;;;6311498;28;20299;-68
2022/08/05 05:36:57;;;;;;;15.23;13.73;;;21.30;99.90;;;;;;6312049;28;20367;-67
2022/08/05 05:40:03;;;;;;;15.65;13.65;;;21.30;99.90;;;;;;6311258;28;20294;-68
2022/08/05 05:43:15;;;;;;;15.60;13.98;;;21.20;99.90;;;;;;6310656;28;20327;-67
2022/08/05 05:46:33;;;;;;;20.38;14.10;;;21.30;99.90;;;;;;6311459;28;20274;-67
2022/08/05 05:49:44;;;;;;;15.63;14.02;;;21.30;99.90;;;;;;6311106;28;20578;-67
2022/08/05 05:53:00;;;;;;;15.77;14.13;;;21.40;99.90;;;;;;6311309;28;20271;-68
2022/08/05 05:56:25;;;;;;;15.25;13.68;;;21.50;99.90;;;;;;6310939;28;20274;-68
2022/08/05 05:59:37;;;;;;;15.75;14.18;;;21.60;99.90;;;;;;6310909;28;20303;-68
2022/08/05 06:02:46;;;;;;;15.02;13.35;;;21.70;99.90;;;;;;6311056;28;20265;-67
2022/08/05 06:05:52;;;;;;;14.55;12.63;;;21.80;99.90;;;;;;6311541;28;20448;-68
2022/08/05 06:08:59;;;;;;;16.27;12.95;;;21.80;99.90;;;;;;6310585;28;20482;-68
2022/08/05 06:12:06;;;;;;;13.75;12.35;;;21.90;99.90;;;;;;6311266;28;20262;-68
2022/08/05 06:15:16;;;;;;;15.13;13.23;;;21.90;99.90;;;;;;6310642;28;20299;-68
2022/08/05 06:18:30;;;;;;;13.85;12.35;;;22.10;99.90;;;;;;6310855;28;20302;-68
2022/08/05 06:21:40;;;;;;;15.23;13.65;;;22.10;99.90;;;;;;6310928;28;20270;-68
2022/08/05 06:24:53;;;;;;;13.75;12.35;;;22.20;99.90;;;;;;6310968;28;20290;-68
2022/08/05 06:27:59;;;;;;;14.65;13.23;;;22.30;99.90;;;;;;6310530;28;20313;-68
2022/08/05 06:31:25;;;;;;;14.15;12.73;;;22.50;99.90;;;;;;6311239;28;20267;-68
2022/08/05 06:34:37;;;;;;;11.90;10.80;;;22.60;99.90;;;;;;6310454;28;20303;-68
2022/08/05 06:37:45;;;;;;;12.75;11.45;;;22.70;99.90;;;;;;6310417;28;20290;-67
2022/08/05 06:41:02;;;;;;;13.63;12.32;;;22.80;99.90;;;;;;6311092;28;20271;-69
2022/08/05 06:44:07;;;;;;;10.18;9.48;;;22.90;99.90;;;;;;6309735;28;20388;-69
2022/08/05 06:47:12;;;;;;;11.50;9.77;;;23.00;99.90;;;;;;6310392;28;20274;-68
2022/08/05 06:50:39;;;;;;;10.63;9.63;;;23.10;99.90;;;;;;6310311;28;20488;-68
2022/08/05 06:53:44;;;;;;;11.65;9.45;;;23.20;99.90;;;;;;6310083;28;20290;-68
2022/08/05 06:56:58;;;;;;;10.55;9.55;;;23.40;99.90;;;;;;6310863;28;20430;-67
2022/08/05 07:00:23;;;;;;;10.63;9.52;;;23.60;99.90;;;;;;6310457;28;20290;-69
2022/08/05 07:03:31;;;;;;;9.40;8.50;;;23.70;99.90;;;;;;6310023;28;20298;-68
2022/08/05 07:06:38;;;;;;;7.75;7.25;;;23.80;99.90;;;;;;6310906;28;20270;-69
2022/08/05 07:09:44;;;;;;;8.93;8.23;;;23.80;99.90;;;;;;6313205;28;20463;-68
2022/08/05 07:16:58;;;;;;;7.97;6.35;;;24.00;99.90;;;;;;6315203;28;20270;-68
2022/08/05 07:20:25;;;;;;;7.70;7.20;;;24.00;99.90;;;;;;6314800;28;20294;-68
2022/08/05 07:23:44;;;;;;;7.75;7.13;;;24.10;99.90;;;;;;6314774;28;20299;-67
2022/08/05 07:26:54;;;;;;;7.93;7.32;;;24.10;99.90;;;;;;6315133;28;20266;-67
2022/08/05 07:29:59;;;;;;;8.30;7.43;;;24.30;99.90;;;;;;6314270;28;20298;-68
2022/08/05 07:33:25;;;;;;;7.63;7.03;;;24.30;99.90;;;;;;6314160;28;20299;-68
2022/08/05 07:36:41;;;;;;;6.72;6.43;;;24.30;99.90;;;;;;6314470;28;20542;-68
2022/08/05 07:39:48;;;;;;;6.82;6.40;;;24.40;99.90;;;;;;6314076;28;20303;-69
2022/08/05 07:43:14;;;;;;;9.07;7.60;;;24.40;99.90;;;;;;6313735;28;20484;-69
2022/08/05 07:46:26;;;;;;;7.28;6.68;;;24.60;99.90;;;;;;6314453;28;20274;-68
2022/08/05 07:49:31;;;;;;;7.28;6.78;;;24.70;99.90;;;;;;6313932;28;20298;-69
2022/08/05 07:52:47;;;;;;;7.47;6.97;;;24.70;99.90;;;;;;6313607;28;20553;-69
2022/08/05 07:55:55;;;;;;;7.28;6.85;;;24.70;99.90;;;;;;6314203;28;20526;-69
2022/08/05 07:59:21;;;;;;;9.45;7.35;;;24.80;99.90;;;;;;6313720;28;20298;-68
2022/08/05 08:02:44;;;;;;;7.38;6.63;;;24.80;99.90;;;;;;6313559;28;20562;-69
2022/08/05 08:06:09;;;;;;;7.35;6.75;;;24.90;99.90;;;;;;6314071;28;20429;-68
2022/08/05 08:09:14;;;;;;;6.10;5.60;;;25.00;99.90;;;;;;6313651;28;20306;-68
2022/08/05 08:12:25;;;;;;;5.43;5.20;;;25.00;99.90;;;;;;6313952;28;20262;-69
2022/08/05 08:15:45;;;;;;;6.30;5.72;;;25.10;99.90;;;;;;6313122;28;20306;-68
2022/08/05 08:19:11;;;;;;;5.45;4.70;;;25.20;99.90;;;;;;6313152;28;20298;-69
2022/08/05 08:22:36;;;;;;;5.10;4.90;;;25.20;99.90;;;;;;6313876;28;20270;-69
2022/08/05 08:25:41;;;;;;;5.30;5.05;;;25.20;99.90;;;;;;6312385;28;20302;-68
2022/08/05 08:29:06;;;;;;;5.20;4.82;;;25.30;99.90;;;;;;6312867;28;20298;-68
2022/08/05 08:32:35;;;;;;;4.45;4.28;;;25.30;99.90;;;;;;6313800;28;20270;-68
2022/08/05 08:35:45;;;;;;;4.40;4.10;;;25.30;99.90;;;;;;6312179;28;20270;-68
2022/08/05 08:39:07;;;;;;;4.68;4.32;;;25.40;99.90;;;;;;6312586;28;20294;-68
2022/08/05 08:42:39;;;;;;;5.25;4.45;;;25.40;99.90;;;;;;6313270;28;20250;-68
2022/08/05 08:45:58;;;;;;;4.05;3.95;;;25.50;99.90;;;;;;6311784;28;20279;-69
2022/08/05 08:49:04;;;;;;;4.38;4.18;;;25.50;99.90;;;;;;6312260;28;20295;-68
2022/08/05 08:52:32;;;;;;;5.63;5.43;;;25.60;99.90;;;;;;6312553;28;20271;-69
2022/08/05 08:55:38;;;;;;;5.20;4.90;;;25.70;99.90;;;;;;6312457;28;20294;-68
2022/08/05 08:59:03;;;;;;;4.40;4.35;;;25.70;99.90;;;;;;6310544;28;20299;-69
2022/08/05 09:02:24;;;;;;;4.65;4.25;;;25.80;99.90;;;;;;6312255;28;20271;-69
2022/08/05 09:05:30;;;;;;;4.70;4.50;;;25.80;99.90;;;;;;6312117;28;20295;-68
2022/08/05 09:08:56;;;;;;;7.53;4.50;;;25.80;99.90;;;;;;6311957;28;20446;-68
2022/08/05 09:12:04;;;;;;;3.83;3.72;;;25.80;99.90;;;;;;6311924;28;20282;-68
2022/08/05 09:15:26;;;;;;;4.70;4.28;;;25.80;99.30;;;;;;6310489;28;20306;-69
2022/08/05 09:18:36;;;;;;;3.75;3.65;;;25.90;99.60;;;;;;6311526;28;20306;-67
2022/08/05 09:21:48;;;;;;;6.40;3.90;;;25.90;99.60;;;;;;6311791;28;20279;-68
2022/08/05 09:25:20;;;;;;;3.97;3.88;;;25.90;99.30;;;;;;6311559;28;20491;-68
2022/08/05 09:28:47;;;;;;;3.97;3.78;;;25.90;99.20;;;;;;6311638;28;20294;-68
2022/08/05 09:32:03;;;;;;;4.25;3.95;;;26.00;99.30;;;;;;6310676;28;20290;-68
2022/08/05 09:35:30;;;;;;;4.10;3.88;;;26.00;98.90;;;;;;6311548;28;20299;-68
2022/08/05 09:38:36;;;;;;;4.25;4.00;;;26.10;98.30;;;;;;6311411;28;20484;-69
2022/08/05 09:41:59;;;;;;;4.00;3.67;;;26.10;98.50;;;;;;6311500;28;20279;-68
2022/08/05 09:45:08;;;;;;;4.00;3.78;;;26.20;98.00;;;;;;6311004;28;20474;-68
2022/08/05 09:48:35;;;;;;;4.38;4.10;;;26.20;98.70;;;;;;6311110;28;20295;-67
2022/08/05 09:51:43;;;;;;;3.80;3.63;;;26.20;97.50;;;;;;6311434;28;20484;-68
2022/08/05 09:55:04;;;;;;;3.50;3.30;;;26.20;97.40;;;;;;6310903;28;20293;-69
2022/08/05 09:58:30;;;;;;;4.22;4.13;;;26.20;98.80;;;;;;6310617;28;20299;-68
2022/08/05 10:01:40;;;;;;;4.20;4.00;;;26.20;97.70;;;;;;6311187;28;20274;-68
2022/08/05 10:04:51;;;;;;;4.05;3.85;;;26.20;97.20;;;;;;6310879;28;20290;-68
2022/08/05 10:08:00;;;;;;;4.07;3.72;;;26.30;97.40;;;;;;6310568;28;20270;-67
2022/08/05 10:11:26;;;;;;;4.50;4.10;;;26.40;97.30;;;;;;6310757;28;20282;-68
2022/08/05 10:14:39;;;;;;;4.32;4.00;;;26.40;97.60;;;;;;6310214;28;20298;-68
2022/08/05 10:18:10;;;;;;;4.72;4.32;;;26.50;98.10;;;;;;6310735;28;20342;-68
2022/08/05 10:21:15;;;;;;;3.90;3.70;;;26.60;97.10;;;;;;6310556;28;20583;-68
2022/08/05 10:24:22;;;;;;;4.00;3.80;;;26.60;97.60;;;;;;6310463;28;20298;-68
2022/08/05 10:27:31;;;;;;;4.10;3.97;;;26.60;97.70;;;;;;6310942;28;20557;-68
2022/08/05 10:30:57;;;;;;;5.15;4.70;;;26.60;97.00;;;;;;6309310;28;20614;-68
2022/08/05 10:34:23;;;;;;;4.60;4.10;;;26.50;97.70;;;;;;6310049;28;20298;-69
2022/08/05 10:37:34;;;;;;;4.80;4.50;;;26.50;97.90;;;;;;6310107;28;20270;-68
2022/08/05 10:41:03;;;;;;;4.53;4.38;;;26.60;97.60;;;;;;6308929;28;20274;-68
2022/08/05 10:44:16;;;;;;;7.07;6.40;;;26.60;97.40;;;;;;6309454;28;20318;-67
2022/08/05 10:47:21;;;;;;;5.40;4.97;;;26.50;97.20;;;;;;6308900;28;20276;-68
2022/08/05 10:50:31;;;;;;;5.15;4.72;;;26.40;97.70;;;;;;6309950;28;20298;-68
2022/08/05 10:53:43;;;;;;;5.35;4.63;;;26.30;97.50;;;;;;6310080;28;20298;-69
2022/08/05 10:56:54;;;;;;;4.75;4.50;;;26.20;97.90;;;;;;6310410;28;20275;-67
2022/08/05 11:00:14;;;;;;;6.07;4.88;;;26.20;98.20;;;;;;6309806;28;20298;-68
2022/08/05 11:03:24;;;;;;;6.63;4.63;;;26.20;97.60;;;;;;6310025;28;20472;-68
2022/08/05 11:06:32;;;;;;;4.93;4.65;;;26.10;98.10;;;;;;6310040;28;20275;-68
2022/08/05 11:09:43;;;;;;;4.75;4.45;;;26.00;99.00;;;;;;6309433;28;20294;-68
2022/08/05 11:12:52;;;;;;;12.00;5.05;;;25.90;99.40;;;;;;6309909;28;20359;-67
2022/08/05 11:16:24;;;;;;;6.50;5.60;;;25.90;99.90;;;;;;6309866;28;20267;-68
2022/08/05 11:19:45;;;;;;;5.90;5.70;;;25.80;99.90;;;;;;6309974;28;20590;-68
2022/08/05 11:23:36;;;;;;;6.32;5.90;;;25.70;99.90;;;;;;6310114;28;20479;-68
2022/08/05 11:27:29;;;;;;;6.20;5.60;;;25.70;99.90;;;;;;6310372;28;20275;-68
2022/08/05 11:31:26;;;;;;;8.95;8.35;;;25.60;99.90;;;;;;6309294;28;20534;-69
2022/08/05 11:34:51;;;;;;;35.70;31.63;;;25.60;99.90;;;;;;6309591;28;20290;-69
2022/08/05 11:38:00;;;;;;;17.40;15.48;;;25.40;99.90;;;;;;6309846;28;20275;-69
2022/08/05 11:41:27;;;;;;;8.82;8.23;;;25.40;99.90;;;;;;6309516;28;20282;-70
2022/08/05 11:44:55;;;;;;;6.85;6.32;;;25.30;99.90;;;;;;6309078;28;20298;-68
2022/08/05 11:48:10;;;;;;;5.97;5.68;;;25.40;99.90;;;;;;6309367;28;20266;-69
2022/08/05 11:51:15;;;;;;;6.70;6.20;;;25.40;99.90;;;;;;6309895;28;20270;-68
2022/08/05 11:54:40;;;;;;;7.18;6.43;;;25.50;99.90;;;;;;6309076;28;20437;-68
2022/08/05 11:57:47;;;;;;;13.80;6.93;;;25.40;99.90;;;;;;6313478;28;20275;-68
2022/08/05 12:01:15;;;;;;;9.88;7.50;;;25.40;99.90;;;;;;6314211;28;20412;-68
2022/08/05 12:04:25;;;;;;;26.70;15.95;;;25.20;99.90;;;;;;6313690;28;20303;-68
2022/08/05 12:07:35;;;;;;;14.82;11.45;;;25.20;99.90;;;;;;6313685;28;20287;-68
2022/08/05 12:11:01;;;;;;;7.97;6.50;;;25.10;99.90;;;;;;6312981;28;20458;-69
2022/08/05 12:14:11;;;;;;;15.88;11.05;;;25.10;99.90;;;;;;6313383;28;20298;-68
2022/08/05 12:17:17;;;;;;;15.75;12.20;;;25.00;99.90;;;;;;6314104;28;20475;-68
2022/08/05 12:20:44;;;;;;;9.77;8.23;;;24.90;99.90;;;;;;6313297;28;20299;-68
2022/08/05 12:23:58;;;;;;;8.23;7.55;;;24.80;99.90;;;;;;6313594;28;20298;-68
2022/08/05 12:27:08;;;;;;;11.88;7.80;;;24.70;99.90;;;;;;6313962;28;20274;-68
2022/08/05 12:30:38;;;;;;;9.65;7.05;;;24.60;99.90;;;;;;6313308;28;20594;-69
2022/08/05 12:33:50;;;;;;;8.07;7.38;;;24.40;99.90;;;;;;6312922;28;20302;-68
2022/08/05 12:37:00;;;;;;;8.48;7.50;;;24.20;99.90;;;;;;6313627;28;20291;-69
2022/08/05 12:40:10;;;;;;;10.82;9.27;;;24.20;99.90;;;;;;6313077;28;20299;-68
2022/08/05 12:43:30;;;;;;;16.05;9.60;;;23.80;99.90;;;;;;6312601;28;20303;-68
2022/08/05 12:46:39;;;;;;;12.90;9.30;;;23.60;99.90;;;;;;6313465;28;20275;-69
2022/08/05 12:49:49;;;;;;;14.20;10.63;;;23.50;99.90;;;;;;6312924;28;20299;-68
2022/08/05 12:53:17;;;;;;;11.85;10.80;;;23.30;99.90;;;;;;6312214;28;20298;-68
2022/08/05 12:56:24;;;;;;;12.60;9.73;;;23.30;99.90;;;;;;6312829;28;20275;-67
2022/08/05 12:59:48;;;;;;;11.27;10.13;;;23.30;99.90;;;;;;6312259;28;20485;-68
2022/08/05 13:03:14;;;;;;;11.90;10.75;;;23.10;99.90;;;;;;6312622;28;20306;-68
2022/08/05 13:06:19;;;;;;;11.70;10.60;;;22.90;99.90;;;;;;6312787;28;20443;-68
2022/08/05 13:09:27;;;;;;;11.88;10.68;;;23.00;99.90;;;;;;6311958;28;20294;-69
2022/08/05 13:12:32;;;;;;;12.27;10.75;;;22.80;99.90;;;;;;6312763;28;20262;-68
2022/08/05 13:15:51;;;;;;;12.85;11.50;;;22.80;99.90;;;;;;6311767;28;20270;-68
2022/08/05 13:18:57;;;;;;;17.02;12.27;;;22.80;99.90;;;;;;6312064;28;20306;-68
2022/08/05 13:22:03;;;;;;;13.13;11.85;;;22.70;99.90;;;;;;6312454;28;20274;-68
2022/08/05 13:25:13;;;;;;;15.52;12.23;;;22.60;99.90;;;;;;6312013;28;20586;-68
2022/08/05 13:28:26;;;;;;;14.63;12.32;;;22.60;99.90;;;;;;6312028;28;20378;-68
2022/08/05 13:31:31;;;;;;;17.08;12.98;;;22.60;99.90;;;;;;6312414;28;20269;-68
2022/08/05 13:34:57;;;;;;;15.25;12.65;;;22.60;99.90;;;;;;6311055;28;20374;-69
2022/08/05 13:38:02;;;;;;;13.68;12.18;;;22.70;99.90;;;;;;6311538;28;20270;-68
2022/08/05 13:41:14;;;;;;;14.57;12.70;;;22.80;99.90;;;;;;6311849;28;20267;-68
2022/08/05 13:44:20;;;;;;;14.00;12.60;;;22.70;99.90;;;;;;6310695;28;20570;-68
2022/08/05 13:47:28;;;;;;;14.02;12.52;;;22.80;99.90;;;;;;6311889;28;20270;-69
2022/08/05 13:50:54;;;;;;;14.15;12.75;;;22.80;99.90;;;;;;6310876;28;20409;-68
2022/08/05 13:53:59;;;;;;;15.02;12.93;;;22.80;99.90;;;;;;6310971;28;20366;-68
2022/08/05 13:57:08;;;;;;;14.63;12.35;;;22.80;99.90;;;;;;6311390;28;20274;-68
2022/08/05 14:00:14;;;;;;;14.10;12.63;;;22.80;99.90;;;;;;6311083;28;20294;-68
2022/08/05 14:03:21;;;;;;;13.32;12.13;;;22.80;99.90;;;;;;6311226;28;20290;-68
2022/08/05 14:06:27;;;;;;;14.25;12.80;;;22.70;99.90;;;;;;6311380;28;20545;-67
2022/08/05 14:09:34;;;;;;;15.43;12.57;;;22.70;99.90;;;;;;6310962;28;20302;-68
2022/08/05 14:12:51;;;;;;;19.80;13.93;;;22.60;99.90;;;;;;6310739;28;20262;-68
2022/08/05 14:15:59;;;;;;;18.10;14.20;;;22.50;99.90;;;;;;6311611;28;20370;-68
2022/08/05 14:19:15;;;;;;;18.38;14.05;;;22.40;99.90;;;;;;6310072;28;20503;-68
2022/08/05 14:22:20;;;;;;;13.57;12.38;;;22.30;99.90;;;;;;6311200;28;20351;-68
2022/08/05 14:25:26;;;;;;;14.43;12.98;;;22.30;99.90;;;;;;6310444;28;20294;-67
2022/08/05 14:28:35;;;;;;;19.73;13.82;;;22.20;99.90;;;;;;6310705;28;20298;-68
2022/08/05 14:31:56;;;;;;;14.30;12.82;;;22.20;99.90;;;;;;6311216;28;20270;-67
2022/08/05 14:35:21;;;;;;;13.55;12.15;;;22.10;99.90;;;;;;6310016;28;20303;-68
2022/08/05 14:38:26;;;;;;;10.98;9.90;;;22.10;99.90;;;;;;6310019;28;20303;-68
2022/08/05 14:41:40;;;;;;;11.13;10.02;;;22.20;99.90;;;;;;6311029;28;20266;-68
2022/08/05 14:45:09;;;;;;;11.43;10.32;;;21.90;99.90;;;;;;6310339;28;20306;-67
2022/08/05 14:48:15;;;;;;;11.68;10.68;;;21.90;99.90;;;;;;6310076;28;20314;-67
2022/08/05 14:51:39;;;;;;;12.27;11.05;;;21.90;99.90;;;;;;6310579;28;20462;-67
2022/08/05 14:54:47;;;;;;;11.18;10.07;;;22.00;99.90;;;;;;6310170;28;20553;-68
2022/08/05 14:57:57;;;;;;;10.25;9.45;;;22.00;99.90;;;;;;6309885;28;20458;-68
2022/08/05 15:01:05;;;;;;;9.98;9.25;;;22.00;99.90;;;;;;6310554;28;20274;-68
2022/08/05 15:04:19;;;;;;;11.02;10.15;;;22.00;99.90;;;;;;6309886;28;20300;-68
2022/08/05 15:07:26;;;;;;;10.68;9.77;;;22.10;99.90;;;;;;6309353;28;20271;-68
2022/08/05 15:10:52;;;;;;;10.52;9.63;;;22.00;99.90;;;;;;6309074;28;20274;-68
2022/08/05 15:13:58;;;;;;;10.02;9.23;;;21.90;99.90;;;;;;6310142;28;20294;-68
2022/08/05 15:17:05;;;;;;;9.27;8.52;;;21.90;99.90;;;;;;6310693;28;20266;-67
2022/08/05 15:20:30;;;;;;;8.18;7.55;;;21.90;99.90;;;;;;6309833;28;20307;-68
2022/08/05 15:23:36;;;;;;;6.93;6.43;;;21.90;99.90;;;;;;6309857;28;20294;-68
2022/08/05 15:26:41;;;;;;;5.85;5.55;;;21.80;99.90;;;;;;6310092;28;20558;-68
2022/08/05 15:29:47;;;;;;;5.43;5.32;;;21.80;99.90;;;;;;6311210;28;20302;-68
2022/08/05 15:32:55;;;;;;;5.30;5.10;;;21.70;99.90;;;;;;6314671;28;20269;-68
2022/08/05 15:36:00;;;;;;;5.40;5.20;;;21.70;99.90;;;;;;6314377;28;20287;-67
2022/08/05 15:39:08;;;;;;;5.15;4.85;;;21.60;99.90;;;;;;6314433;28;20365;-69
2022/08/05 15:42:33;;;;;;;4.75;4.45;;;21.50;99.90;;;;;;6314679;28;20456;-68
2022/08/05 15:45:58;;;;;;;4.43;4.32;;;21.50;99.90;;;;;;6313390;28;20282;-68
2022/08/05 15:49:07;;;;;;;4.68;4.50;;;21.60;99.90;;;;;;6313717;28;20294;-68
2022/08/05 15:52:15;;;;;;;4.60;4.40;;;21.50;99.90;;;;;;6314803;28;20274;-68
2022/08/05 15:55:40;;;;;;;4.65;4.45;;;21.50;99.90;;;;;;6314044;28;20306;-68
2022/08/05 15:59:06;;;;;;;4.60;4.40;;;21.40;99.90;;;;;;6313799;28;20298;-68
2022/08/05 16:02:12;;;;;;;4.68;4.47;;;21.50;99.90;;;;;;6314322;28;20270;-68
2022/08/05 16:05:25;;;;;;;4.47;4.10;;;21.40;99.90;;;;;;6313410;28;20294;-68
2022/08/05 16:08:32;;;;;;;4.63;4.43;;;21.40;99.90;;;;;;6313799;28;20294;-69
2022/08/05 16:11:40;;;;;;;5.18;4.88;;;21.50;99.90;;;;;;6314100;28;20629;-68
2022/08/05 16:14:47;;;;;;;4.90;4.60;;;21.50;99.90;;;;;;6313274;28;20573;-68
2022/08/05 16:17:52;;;;;;;4.47;4.20;;;21.40;99.90;;;;;;6313184;28;20274;-68
2022/08/05 16:21:03;;;;;;;4.18;3.95;;;21.50;99.90;;;;;;6313356;28;20283;-68
2022/08/05 16:24:10;;;;;;;4.20;3.97;;;21.60;99.90;;;;;;6313564;28;20299;-67
2022/08/05 16:27:36;;;;;;;4.53;4.35;;;21.50;99.90;;;;;;6313401;28;20283;-68
2022/08/05 16:31:01;;;;;;;4.78;4.47;;;21.40;99.90;;;;;;6312662;28;20274;-68
2022/08/05 16:34:07;;;;;;;5.18;4.75;;;21.40;99.90;;;;;;6313160;28;20467;-68
2022/08/05 16:37:15;;;;;;;4.40;4.20;;;21.40;99.90;;;;;;6313332;28;20576;-69
2022/08/05 16:40:40;;;;;;;4.75;4.35;;;21.30;99.90;;;;;;6312707;28;20581;-68